Airfield :
LOGIN :

Register | Disclaimer

   EN    FR    IT 

 










Legend :    VFR   Marginal VFR   IFR   Intensive IFR   Very Intensive IFR
Visi :
Ceiling :
>= 8 km
>= 3000ft
5 to 8 km
1000 to 3000 ft
1500m to 5 km
500 to 1000 ft
800 to 1500m
200 to 500 ft
< 800m
< 200 ft
Symbols :   Thunderstorms  Fog  Heavy snow  Heavy precipitations  Wind > 20 kt
SIGMETs :     Misc.  Thunderstorms  Icing  Turbulence  Mountain Waves  Volcanic Ashes







- Airport Elevation : 297 ft
- IATA code : UIP
- Download approach charts


LFRQ - Quimper Pluguffan

CURRENT METAR :
  • 270430Z AUTO 34006KT 9999 SCT015 OVC160 11/10 Q1016

EXPIRED METARs :
  • 270400Z AUTO 34007KT CAVOK 11/10 Q1016
  • 270330Z AUTO 35007KT 9999 FEW016 SCT200 11/10 Q1016
  • 270300Z AUTO 35006KT 9999 BKN016 OVC200 11/11 Q1016
  • 270230Z AUTO 35006KT 9999 OVC014 12/11 Q1016
  • 270200Z AUTO 36004KT 9999 SCT010 OVC015 12/11 Q1016

TAF TAF LFRQ
Valid from the 26 at 18:00 until the 27 at 18:00 UTC


261700Z 2618/2718 29009KT 9999 BKN013
TEMPO 2618/2623 3000 RA OVC003
PROB30
TEMPO 2623/2707 3000 BR OVC003
No reported NOTAMs for that airfield.



MET'MAP, your aeronautical weather chart ! - Copyright ORBIFLY December 2007 - Disclaimer

ORBIFLY MET'MAP TEAM :

Programming & Development : Alexandra Zaïnal
Concept & Development : Baudouin d'Aumeries
Co-Development & Prog : Marc-Olivier Méhu
Technical & hardware support : Manuel Goepfert

Contact : metmap@orbifly.com




SOURCES & CREDITS :

   NOAA